Time,TemperatureF,DewpointF,PressureIn,WindDirection,WindDirectionDegrees,WindSpeedMPH,WindSpeedGustMPH,Humidity,HourlyPrecipIn,Conditions,Clouds,dailyrainin,SoftwareType,DateUTC
2013-07-02 00:00:00,74.0,61.4,29.51,East,90,2.0,8.0,65,0.00,,,0.00,Weather View 32 v70,2013-07-02 04:00:00,
2013-07-02 00:05:00,74.0,61.9,29.51,SE,135,3.0,8.0,66,0.00,,,0.00,Weather View 32 v70,2013-07-02 04:05:00,
2013-07-02 00:10:00,74.0,61.9,29.51,ESE,112,3.0,8.0,66,0.00,,,0.00,Weather View 32 v70,2013-07-02 04:10:00,
2013-07-02 00:15:00,74.0,61.4,29.51,South,180,1.0,8.0,65,0.00,,,0.00,Weather View 32 v70,2013-07-02 04:15:00,
2013-07-02 00:25:00,74.0,59.2,29.51,SE,135,0.0,8.0,60,0.00,,,0.00,Weather View 32 v70,2013-07-02 04:25:00,
2013-07-02 00:30:00,74.0,56.8,29.51,ESE,112,1.0,9.0,55,0.00,,,0.00,Weather View 32 v70,2013-07-02 04:30:00,
2013-07-02 00:35:00,74.0,56.8,29.51,ESE,112,0.0,9.0,55,0.00,,,0.00,Weather View 32 v70,2013-07-02 04:35:00,
2013-07-02 00:40:00,74.0,55.7,29.51,SE,135,4.0,9.0,53,0.00,,,0.00,Weather View 32 v70,2013-07-02 04:40:00,
2013-07-02 00:50:00,73.0,58.7,29.51,SSW,202,5.0,9.0,61,0.02,,,0.02,Weather View 32 v70,2013-07-02 04:50:00,
2013-07-02 00:55:00,73.0,51.5,29.51,NNW,337,0.0,9.0,47,0.03,,,0.03,Weather View 32 v70,2013-07-02 04:55:00,
2013-07-02 01:00:00,73.0,47.2,29.51,SW,225,2.0,9.0,40,0.03,,,0.03,Weather View 32 v70,2013-07-02 05:00:00,
2013-07-02 01:10:00,73.0,15.3,29.51,SE,135,3.0,9.0,11,0.03,,,0.03,Weather View 32 v70,2013-07-02 05:10:00,
2013-07-02 01:15:00,72.0,18.4,29.51,East,90,4.0,10.0,13,0.03,,,0.03,Weather View 32 v70,2013-07-02 05:15:00,
2013-07-02 01:25:00,73.0,15.3,29.52,South,180,1.0,10.0,11,0.03,,,0.03,Weather View 32 v70,2013-07-02 05:25:00,
2013-07-02 01:30:00,73.0,-6.7,29.52,SE,135,6.0,10.0,4,0.03,,,0.03,Weather View 32 v70,2013-07-02 05:30:00,
2013-07-02 01:40:00,73.0,8.1,29.52,SSE,157,3.0,10.0,8,0.03,,,0.03,Weather View 32 v70,2013-07-02 05:40:00,
2013-07-02 01:45:00,73.0,13.1,29.52,SSE,157,5.0,10.0,10,0.03,,,0.03,Weather View 32 v70,2013-07-02 05:45:00,
2013-07-02 01:55:00,73.0,15.3,29.51,South,180,3.0,10.0,11,0.00,,,0.03,Weather View 32 v70,2013-07-02 05:55:00,
2013-07-02 02:00:00,73.0,15.3,29.51,SE,135,3.0,10.0,11,0.00,,,0.03,Weather View 32 v70,2013-07-02 06:00:00,
2013-07-02 02:10:00,73.0,1.8,29.51,East,90,4.0,10.0,6,0.00,,,0.03,Weather View 32 v70,2013-07-02 06:10:00,
2013-07-02 02:15:00,73.0,1.8,29.51,SSE,157,4.0,9.0,6,0.00,,,0.03,Weather View 32 v70,2013-07-02 06:15:00,
2013-07-02 02:25:00,73.0,-33.3,29.51,SE,135,3.0,9.0,1,0.00,,,0.03,Weather View 32 v70,2013-07-02 06:25:00,
2013-07-02 02:30:00,72.0,-33.9,29.51,SE,135,0.0,9.0,1,0.00,,,0.03,Weather View 32 v70,2013-07-02 06:30:00,
2013-07-02 02:40:00,72.0,-13.2,29.52,SW,225,3.0,9.0,3,0.00,,,0.03,Weather View 32 v70,2013-07-02 06:40:00,
2013-07-02 02:45:00,72.0,-33.9,29.52,WSW,247,2.0,9.0,1,0.00,,,0.03,Weather View 32 v70,2013-07-02 06:45:00,
2013-07-02 02:55:00,72.0,-33.9,29.52,NNW,337,0.0,9.0,1,0.00,,,0.03,Weather View 32 v70,2013-07-02 06:55:00,
2013-07-02 03:00:00,72.0,-33.9,29.51,NNW,337,0.0,9.0,1,0.00,,,0.03,Weather View 32 v70,2013-07-02 07:00:00,
2013-07-02 03:05:00,72.0,-33.9,29.52,North,360,0.0,9.0,1,0.00,,,0.03,Weather View 32 v70,2013-07-02 07:05:00,
2013-07-02 03:15:00,72.0,-33.9,29.51,ESE,112,1.0,9.0,1,0.00,,,0.03,Weather View 32 v70,2013-07-02 07:15:00,
2013-07-02 03:25:00,72.0,-33.9,29.51,SE,135,3.0,7.0,1,0.00,,,0.03,Weather View 32 v70,2013-07-02 07:25:00,
2013-07-02 03:30:00,72.0,-33.9,29.52,South,180,1.0,7.0,1,0.00,,,0.03,Weather View 32 v70,2013-07-02 07:30:00,
2013-07-02 03:40:00,72.0,-33.9,29.51,SE,135,7.0,9.0,1,0.00,,,0.03,Weather View 32 v70,2013-07-02 07:40:00,
2013-07-02 03:45:00,72.0,-33.9,29.52,SSE,157,2.0,9.0,1,0.00,,,0.03,Weather View 32 v70,2013-07-02 07:45:00,
2013-07-02 03:50:00,73.0,-6.7,29.52,SE,135,4.0,9.0,4,0.00,,,0.03,Weather View 32 v70,2013-07-02 07:50:00,
2013-07-02 04:00:00,73.0,31.8,29.52,East,90,7.0,12.0,22,0.00,,,0.03,Weather View 32 v70,2013-07-02 08:00:00,
2013-07-02 04:10:00,73.0,28.2,29.52,SE,135,6.0,12.0,19,0.00,,,0.03,Weather View 32 v70,2013-07-02 08:10:00,
2013-07-02 04:15:00,73.0,26.9,29.53,SSE,157,4.0,12.0,18,0.00,,,0.03,Weather View 32 v70,2013-07-02 08:15:00,
2013-07-02 04:25:00,73.0,26.9,29.53,ESE,112,4.0,12.0,18,0.00,,,0.03,Weather View 32 v70,2013-07-02 08:25:00,
2013-07-02 04:30:00,73.0,29.5,29.53,NE,45,4.0,12.0,20,0.00,,,0.03,Weather View 32 v70,2013-07-02 08:30:00,
2013-07-02 04:40:00,73.0,41.3,29.53,SSE,157,7.0,12.0,32,0.00,,,0.03,Weather View 32 v70,2013-07-02 08:40:00,
2013-07-02 04:45:00,73.0,42.1,29.53,ESE,112,4.0,12.0,33,0.00,,,0.03,Weather View 32 v70,2013-07-02 08:45:00,
2013-07-02 04:55:00,73.0,41.3,29.53,SSE,157,4.0,12.0,32,0.00,,,0.03,Weather View 32 v70,2013-07-02 08:55:00,
2013-07-02 05:00:00,73.0,39.7,29.53,East,90,1.0,10.0,30,0.00,,,0.03,Weather View 32 v70,2013-07-02 09:00:00,
2013-07-02 05:10:00,73.0,37.0,29.53,SSE,157,1.0,10.0,27,0.00,,,0.03,Weather View 32 v70,2013-07-02 09:10:00,
2013-07-02 05:15:00,73.0,35.0,29.53,ESE,112,7.0,10.0,25,0.00,,,0.03,Weather View 32 v70,2013-07-02 09:15:00,
2013-07-02 05:25:00,73.0,30.7,29.53,ESE,112,6.0,10.0,21,0.00,,,0.03,Weather View 32 v70,2013-07-02 09:25:00,
2013-07-02 05:35:00,73.0,31.8,29.53,SE,135,5.0,10.0,22,0.00,,,0.03,Weather View 32 v70,2013-07-02 09:35:00,
2013-07-02 05:40:00,73.0,34.0,29.54,SE,135,6.0,10.0,24,0.00,,,0.03,Weather View 32 v70,2013-07-02 09:40:00,
2013-07-02 05:50:00,73.0,30.7,29.54,SE,135,4.0,9.0,21,0.00,,,0.03,Weather View 32 v70,2013-07-02 09:50:00,
2013-07-02 05:55:00,73.0,29.5,29.54,SE,135,0.0,9.0,20,0.00,,,0.03,Weather View 32 v70,2013-07-02 09:55:00,
2013-07-02 06:00:00,73.0,31.8,29.55,East,90,6.0,9.0,22,0.00,,,0.03,Weather View 32 v70,2013-07-02 10:00:00,
2013-07-02 06:10:00,73.0,24.1,29.55,ESE,112,5.0,8.0,16,0.00,,,0.03,Weather View 32 v70,2013-07-02 10:10:00,
2013-07-02 06:20:00,73.0,26.9,29.55,ESE,112,2.0,8.0,18,0.00,,,0.03,Weather View 32 v70,2013-07-02 10:20:00,
2013-07-02 06:25:00,73.0,34.0,29.55,SE,135,1.0,9.0,24,0.00,,,0.03,Weather View 32 v70,2013-07-02 10:25:00,
2013-07-02 06:30:00,73.0,42.9,29.55,SE,135,7.0,9.0,34,0.00,,,0.03,Weather View 32 v70,2013-07-02 10:30:00,
2013-07-02 06:40:00,73.0,50.9,29.55,ESE,112,8.0,10.0,46,0.00,,,0.03,Weather View 32 v70,2013-07-02 10:40:00,
2013-07-02 06:45:00,73.0,52.7,29.56,South,180,4.0,10.0,49,0.00,,,0.03,Weather View 32 v70,2013-07-02 10:45:00,
2013-07-02 06:55:00,73.0,49.7,29.56,East,90,0.0,10.0,44,0.00,,,0.03,Weather View 32 v70,2013-07-02 10:55:00,
2013-07-02 07:05:00,73.0,47.2,29.57,East,90,5.0,10.0,40,0.00,,,0.03,Weather View 32 v70,2013-07-02 11:05:00,
2013-07-02 07:15:00,73.0,47.8,29.57,SE,135,4.0,10.0,41,0.00,,,0.03,Weather View 32 v70,2013-07-02 11:15:00,
2013-07-02 07:25:00,73.0,49.7,29.57,SE,135,6.0,10.0,44,0.00,,,0.03,Weather View 32 v70,2013-07-02 11:25:00,
2013-07-02 07:30:00,73.0,50.3,29.57,SSE,157,6.0,10.0,45,0.00,,,0.03,Weather View 32 v70,2013-07-02 11:30:00,
2013-07-02 07:40:00,73.0,57.3,29.57,SE,135,7.0,12.0,58,0.00,,,0.03,Weather View 32 v70,2013-07-02 11:40:00,
2013-07-02 07:45:00,73.0,57.8,29.57,ESE,112,6.0,12.0,59,0.00,,,0.03,Weather View 32 v70,2013-07-02 11:45:00,
2013-07-02 07:55:00,73.0,58.2,29.57,East,90,5.0,12.0,60,0.00,,,0.03,Weather View 32 v70,2013-07-02 11:55:00,
2013-07-02 08:00:00,73.0,57.8,29.58,East,90,3.0,12.0,59,0.00,,,0.03,Weather View 32 v70,2013-07-02 12:00:00,
2013-07-02 08:05:00,73.0,55.8,29.58,SE,135,11.0,13.0,55,0.00,,,0.03,Weather View 32 v70,2013-07-02 12:05:00,
2013-07-02 08:15:00,73.0,56.8,29.58,SE,135,7.0,13.0,57,0.00,,,0.03,Weather View 32 v70,2013-07-02 12:15:00,
2013-07-02 08:25:00,73.0,55.8,29.58,ESE,112,2.0,13.0,55,0.00,,,0.03,Weather View 32 v70,2013-07-02 12:25:00,
2013-07-02 08:30:00,73.0,53.7,29.58,SE,135,7.0,13.0,51,0.00,,,0.03,Weather View 32 v70,2013-07-02 12:30:00,
2013-07-02 08:40:00,73.0,53.2,29.59,SSE,157,5.0,13.0,50,0.00,,,0.03,Weather View 32 v70,2013-07-02 12:40:00,
2013-07-02 08:45:00,73.0,50.9,29.59,SE,135,7.0,13.0,46,0.00,,,0.03,Weather View 32 v70,2013-07-02 12:45:00,
2013-07-02 08:55:00,73.0,53.2,29.59,SSE,157,8.0,13.0,50,0.00,,,0.03,Weather View 32 v70,2013-07-02 12:55:00,
2013-07-02 09:00:00,73.0,53.7,29.59,SSE,157,3.0,13.0,51,0.00,,,0.03,Weather View 32 v70,2013-07-02 13:00:00,
2013-07-02 09:10:00,73.0,55.8,29.59,SSE,157,7.0,12.0,55,0.00,,,0.03,Weather View 32 v70,2013-07-02 13:10:00,
2013-07-02 09:20:00,74.0,59.2,29.59,SSE,157,9.0,13.0,60,0.00,,,0.03,Weather View 32 v70,2013-07-02 13:20:00,
2013-07-02 09:25:00,74.0,61.9,29.59,SE,135,7.0,13.0,66,0.00,,,0.03,Weather View 32 v70,2013-07-02 13:25:00,
2013-07-02 09:30:00,74.0,62.3,29.59,SE,135,7.0,13.0,67,0.00,,,0.03,Weather View 32 v70,2013-07-02 13:30:00,
2013-07-02 09:40:00,74.0,62.7,29.59,NE,45,6.0,13.0,68,0.00,,,0.03,Weather View 32 v70,2013-07-02 13:40:00,
2013-07-02 09:50:00,74.0,62.7,29.60,ESE,112,9.0,13.0,68,0.00,,,0.03,Weather View 32 v70,2013-07-02 13:50:00,
2013-07-02 09:55:00,74.0,62.7,29.60,SE,135,3.0,13.0,68,0.00,,,0.03,Weather View 32 v70,2013-07-02 13:55:00,
2013-07-02 10:05:00,74.0,64.8,29.60,ESE,112,9.0,13.0,73,0.00,,,0.03,Weather View 32 v70,2013-07-02 14:05:00,
2013-07-02 10:10:00,74.0,65.2,29.60,SE,135,6.0,13.0,74,0.00,,,0.03,Weather View 32 v70,2013-07-02 14:10:00,
2013-07-02 10:15:00,74.0,64.8,29.60,SE,135,6.0,13.0,73,0.00,,,0.03,Weather View 32 v70,2013-07-02 14:15:00,
2013-07-02 10:20:00,74.0,65.5,29.60,South,180,6.0,13.0,75,0.00,,,0.03,Weather View 32 v70,2013-07-02 14:20:00,
2013-07-02 10:30:00,75.0,68.4,29.61,SE,135,4.0,15.0,80,0.00,,,0.03,Weather View 32 v70,2013-07-02 14:30:00,
2013-07-02 10:35:00,75.0,69.8,29.61,SSE,157,9.0,15.0,84,0.00,,,0.03,Weather View 32 v70,2013-07-02 14:35:00,
2013-07-02 10:45:00,76.0,71.8,29.61,SE,135,5.0,15.0,87,0.00,,,0.03,Weather View 32 v70,2013-07-02 14:45:00,
2013-07-02 10:50:00,76.0,72.2,29.61,SSE,157,9.0,15.0,88,0.00,,,0.03,Weather View 32 v70,2013-07-02 14:50:00,
2013-07-02 10:55:00,76.0,72.2,29.61,SSE,157,6.0,15.0,88,0.00,,,0.03,Weather View 32 v70,2013-07-02 14:55:00,
2013-07-02 11:00:00,77.0,73.2,29.61,SE,135,7.0,15.0,88,0.00,,,0.03,Weather View 32 v70,2013-07-02 15:00:00,
2013-07-02 11:05:00,77.0,73.2,29.61,SE,135,12.0,15.0,88,0.00,,,0.03,Weather View 32 v70,2013-07-02 15:05:00,
2013-07-02 11:15:00,77.0,72.8,29.61,SE,135,8.0,15.0,87,0.00,,,0.03,Weather View 32 v70,2013-07-02 15:15:00,
2013-07-02 11:20:00,78.0,73.8,29.62,SE,135,7.0,15.0,87,0.00,,,0.03,Weather View 32 v70,2013-07-02 15:20:00,
2013-07-02 11:30:00,77.0,72.5,29.61,ESE,112,10.0,15.0,86,0.00,,,0.03,Weather View 32 v70,2013-07-02 15:30:00,
2013-07-02 11:40:00,77.0,72.8,29.62,SE,135,6.0,15.0,87,0.00,,,0.03,Weather View 32 v70,2013-07-02 15:40:00,
2013-07-02 11:45:00,77.0,72.8,29.61,SE,135,7.0,15.0,87,0.00,,,0.03,Weather View 32 v70,2013-07-02 15:45:00,
2013-07-02 11:53:00,77.0,72.8,29.61,SE,135,7.0,15.0,87,0.00,,,0.03,Weather View 32 v70,2013-07-02 15:53:00,
2013-07-02 12:00:00,78.0,72.7,29.62,SE,135,4.0,15.0,84,0.00,,,0.03,Weather View 32 v70,2013-07-02 16:00:00,
2013-07-02 12:05:00,79.0,74.1,29.62,SE,135,7.0,15.0,85,0.00,,,0.03,Weather View 32 v70,2013-07-02 16:05:00,
2013-07-02 12:15:00,79.0,73.4,29.62,SSW,202,4.0,16.0,83,0.00,,,0.03,Weather View 32 v70,2013-07-02 16:15:00,
2013-07-02 12:20:00,79.0,73.0,29.62,SE,135,6.0,16.0,82,0.00,,,0.03,Weather View 32 v70,2013-07-02 16:20:00,
2013-07-02 12:25:00,79.0,73.4,29.62,SSE,157,6.0,16.0,83,0.00,,,0.03,Weather View 32 v70,2013-07-02 16:25:00,
2013-07-02 12:30:00,79.0,73.4,29.62,ESE,112,10.0,16.0,83,0.00,,,0.03,Weather View 32 v70,2013-07-02 16:30:00,
2013-07-02 12:35:00,79.0,73.4,29.62,SE,135,3.0,16.0,83,0.00,,,0.03,Weather View 32 v70,2013-07-02 16:35:00,
2013-07-02 12:45:00,79.0,72.6,29.61,SE,135,6.0,16.0,81,0.00,,,0.03,Weather View 32 v70,2013-07-02 16:45:00,
2013-07-02 12:51:00,79.0,72.6,29.61,SE,135,6.0,16.0,81,0.00,,,0.03,Weather View 32 v70,2013-07-02 16:51:00,
2013-07-02 13:00:00,79.0,73.0,29.61,SSE,157,13.0,16.0,82,0.00,,,0.03,Weather View 32 v70,2013-07-02 17:00:00,
2013-07-02 13:05:00,79.0,72.3,29.61,SSE,157,11.0,16.0,80,0.00,,,0.03,Weather View 32 v70,2013-07-02 17:05:00,
2013-07-02 13:15:00,80.0,72.9,29.61,SE,135,9.0,15.0,79,0.00,,,0.03,Weather View 32 v70,2013-07-02 17:15:00,
2013-07-02 13:25:00,80.0,72.9,29.61,SSE,157,8.0,17.0,79,0.00,,,0.03,Weather View 32 v70,2013-07-02 17:25:00,
2013-07-02 13:35:00,79.0,72.6,29.61,SSE,157,5.0,17.0,81,0.00,,,0.03,Weather View 32 v70,2013-07-02 17:35:00,
2013-07-02 13:40:00,80.0,72.9,29.61,SSE,157,10.0,17.0,79,0.00,,,0.03,Weather View 32 v70,2013-07-02 17:40:00,
2013-07-02 13:50:00,80.0,71.7,29.61,SE,135,12.0,17.0,76,0.00,,,0.03,Weather View 32 v70,2013-07-02 17:50:00,
2013-07-02 13:55:00,80.0,72.1,29.61,South,180,10.0,17.0,77,0.00,,,0.03,Weather View 32 v70,2013-07-02 17:55:00,
2013-07-02 14:05:00,80.0,72.5,29.61,SE,135,12.0,18.0,78,0.00,,,0.03,Weather View 32 v70,2013-07-02 18:05:00,
2013-07-02 14:15:00,75.0,67.6,29.62,ESE,112,3.0,18.0,78,0.07,,,0.10,Weather View 32 v70,2013-07-02 18:15:00,
2013-07-02 14:20:00,75.0,64.9,29.62,ESE,112,7.0,18.0,71,0.07,,,0.10,Weather View 32 v70,2013-07-02 18:20:00,
2013-07-02 14:30:00,76.0,67.5,29.61,SSE,157,5.0,18.0,75,0.07,,,0.10,Weather View 32 v70,2013-07-02 18:30:00,
2013-07-02 14:35:00,76.0,65.1,29.61,SE,135,4.0,18.0,69,0.07,,,0.10,Weather View 32 v70,2013-07-02 18:35:00,
2013-07-02 14:45:00,77.0,70.0,29.61,SE,135,5.0,18.0,79,0.07,,,0.10,Weather View 32 v70,2013-07-02 18:45:00,
2013-07-02 14:55:00,77.0,72.5,29.61,SE,135,6.0,18.0,86,0.07,,,0.10,Weather View 32 v70,2013-07-02 18:55:00,
2013-07-02 15:05:00,78.0,73.1,29.61,SE,135,4.0,16.0,85,0.07,,,0.10,Weather View 32 v70,2013-07-02 19:05:00,
2013-07-02 15:10:00,78.0,73.8,29.61,SE,135,7.0,13.0,87,0.03,,,0.10,Weather View 32 v70,2013-07-02 19:10:00,
2013-07-02 15:15:00,78.0,73.8,29.61,SSE,157,6.0,13.0,87,0.00,,,0.10,Weather View 32 v70,2013-07-02 19:15:00,
2013-07-02 15:25:00,78.0,73.5,29.61,SE,135,10.0,13.0,86,0.00,,,0.10,Weather View 32 v70,2013-07-02 19:25:00,
2013-07-02 15:35:00,79.0,73.7,29.61,SSE,157,9.0,16.0,84,0.00,,,0.10,Weather View 32 v70,2013-07-02 19:35:00,
2013-07-02 15:40:00,79.0,73.7,29.61,South,180,5.0,16.0,84,0.00,,,0.10,Weather View 32 v70,2013-07-02 19:40:00,
2013-07-02 15:50:00,79.0,72.6,29.61,SSE,157,12.0,20.0,81,0.00,,,0.10,Weather View 32 v70,2013-07-02 19:50:00,
2013-07-02 15:56:00,78.0,72.0,29.61,South,180,7.0,20.0,82,0.00,,,0.10,Weather View 32 v70,2013-07-02 19:56:00,
2013-07-02 16:05:00,78.0,72.0,29.61,SE,135,17.0,20.0,82,0.00,,,0.10,Weather View 32 v70,2013-07-02 20:05:00,
2013-07-02 16:15:00,77.0,71.8,29.61,SSE,157,13.0,22.0,84,0.00,,,0.10,Weather View 32 v70,2013-07-02 20:15:00,
2013-07-02 16:25:00,77.0,72.5,29.61,SE,135,7.0,22.0,86,0.00,,,0.10,Weather View 32 v70,2013-07-02 20:25:00,
2013-07-02 16:35:00,76.0,71.8,29.62,SSE,157,8.0,22.0,87,0.00,,,0.10,Weather View 32 v70,2013-07-02 20:35:00,
2013-07-02 16:40:00,76.0,71.8,29.62,SSE,157,19.0,22.0,87,0.00,,,0.10,Weather View 32 v70,2013-07-02 20:40:00,
2013-07-02 16:50:00,77.0,72.1,29.62,SSW,202,10.0,22.0,85,0.00,,,0.10,Weather View 32 v70,2013-07-02 20:50:00,
2013-07-02 16:57:00,77.0,72.1,29.62,SE,135,10.0,22.0,85,0.00,,,0.10,Weather View 32 v70,2013-07-02 20:57:00,
2013-07-02 17:05:00,78.0,72.0,29.63,South,180,10.0,22.0,82,0.00,,,0.10,Weather View 32 v70,2013-07-02 21:05:00,
2013-07-02 17:15:00,77.0,72.1,29.63,SSE,157,10.0,22.0,85,0.00,,,0.10,Weather View 32 v70,2013-07-02 21:15:00,
2013-07-02 17:20:00,77.0,72.1,29.63,SSE,157,6.0,22.0,85,0.00,,,0.10,Weather View 32 v70,2013-07-02 21:20:00,
2013-07-02 17:25:00,77.0,72.1,29.63,SSE,157,8.0,22.0,85,0.00,,,0.10,Weather View 32 v70,2013-07-02 21:25:00,
2013-07-02 17:35:00,77.0,72.5,29.63,SE,135,10.0,22.0,86,0.00,,,0.10,Weather View 32 v70,2013-07-02 21:35:00,
2013-07-02 17:45:00,76.0,72.2,29.63,SSW,202,6.0,22.0,88,0.00,,,0.10,Weather View 32 v70,2013-07-02 21:45:00,
2013-07-02 17:50:00,77.0,73.2,29.63,SSE,157,7.0,22.0,88,0.00,,,0.10,Weather View 32 v70,2013-07-02 21:50:00,
2013-07-02 17:58:00,76.0,72.2,29.63,SSW,202,11.0,22.0,88,0.00,,,0.10,Weather View 32 v70,2013-07-02 21:58:00,
2013-07-02 18:05:00,77.0,72.8,29.64,East,90,11.0,22.0,87,0.00,,,0.10,Weather View 32 v70,2013-07-02 22:05:00,
2013-07-02 18:10:00,76.0,71.8,29.64,SSE,157,6.0,19.0,87,0.00,,,0.10,Weather View 32 v70,2013-07-02 22:10:00,
2013-07-02 18:20:00,77.0,72.1,29.64,SE,135,7.0,19.0,85,0.00,,,0.10,Weather View 32 v70,2013-07-02 22:20:00,
2013-07-02 18:30:00,77.0,71.8,29.65,SSE,157,12.0,19.0,84,0.00,,,0.10,Weather View 32 v70,2013-07-02 22:30:00,
2013-07-02 18:40:00,76.0,71.5,29.65,SE,135,10.0,19.0,86,0.00,,,0.10,Weather View 32 v70,2013-07-02 22:40:00,
2013-07-02 18:50:00,76.0,71.5,29.65,ESE,112,8.0,19.0,86,0.00,,,0.10,Weather View 32 v70,2013-07-02 22:50:00,
2013-07-02 18:55:00,76.0,71.8,29.65,SE,135,10.0,19.0,87,0.00,,,0.10,Weather View 32 v70,2013-07-02 22:55:00,
2013-07-02 19:05:00,76.0,71.5,29.65,SE,135,13.0,19.0,86,0.00,,,0.10,Weather View 32 v70,2013-07-02 23:05:00,
2013-07-02 19:15:00,76.0,71.8,29.65,SE,135,9.0,19.0,87,0.00,,,0.10,Weather View 32 v70,2013-07-02 23:15:00,
2013-07-02 19:25:00,75.0,70.8,29.65,ESE,112,9.0,19.0,87,0.00,,,0.10,Weather View 32 v70,2013-07-02 23:25:00,
2013-07-02 19:35:00,75.0,70.2,29.65,SW,225,9.0,19.0,85,0.00,,,0.10,Weather View 32 v70,2013-07-02 23:35:00,
2013-07-02 19:40:00,75.0,70.5,29.65,SE,135,7.0,19.0,86,0.00,,,0.10,Weather View 32 v70,2013-07-02 23:40:00,
2013-07-02 19:50:00,75.0,70.5,29.65,South,180,7.0,19.0,86,0.00,,,0.10,Weather View 32 v70,2013-07-02 23:50:00,
2013-07-02 19:55:00,74.0,69.5,29.65,SSW,202,6.0,19.0,86,0.00,,,0.10,Weather View 32 v70,2013-07-02 23:55:00,
2013-07-02 20:05:00,74.0,69.9,29.65,SE,135,14.0,19.0,87,0.00,,,0.10,Weather View 32 v70,2013-07-03 00:05:00,
2013-07-02 20:15:00,74.0,69.9,29.65,South,180,11.0,18.0,87,0.00,,,0.10,Weather View 32 v70,2013-07-03 00:15:00,
2013-07-02 20:25:00,73.0,68.9,29.65,SSE,157,9.0,18.0,87,0.00,,,0.10,Weather View 32 v70,2013-07-03 00:25:00,
2013-07-02 20:30:00,73.0,67.5,29.65,South,180,6.0,17.0,83,0.00,,,0.10,Weather View 32 v70,2013-07-03 00:30:00,
2013-07-02 20:35:00,72.0,64.4,29.65,SSE,157,7.0,16.0,77,0.00,,,0.10,Weather View 32 v70,2013-07-03 00:35:00,
2013-07-02 20:45:00,72.0,62.0,29.65,ESE,112,3.0,16.0,71,0.00,,,0.10,Weather View 32 v70,2013-07-03 00:45:00,
2013-07-02 20:50:00,72.0,61.6,29.65,SE,135,3.0,16.0,70,0.00,,,0.10,Weather View 32 v70,2013-07-03 00:50:00,
2013-07-02 20:59:00,72.0,63.6,29.65,South,180,2.0,16.0,75,0.00,,,0.10,Weather View 32 v70,2013-07-03 00:59:00,
2013-07-02 21:05:00,72.0,62.0,29.66,SSE,157,5.0,16.0,71,0.00,,,0.10,Weather View 32 v70,2013-07-03 01:05:00,
2013-07-02 21:10:00,72.0,62.4,29.66,SE,135,5.0,16.0,72,0.00,,,0.10,Weather View 32 v70,2013-07-03 01:10:00,
2013-07-02 21:15:00,72.0,61.6,29.66,SSE,157,5.0,14.0,70,0.00,,,0.10,Weather View 32 v70,2013-07-03 01:15:00,
2013-07-02 21:20:00,72.0,60.8,29.66,SE,135,6.0,13.0,68,0.00,,,0.10,Weather View 32 v70,2013-07-03 01:20:00,
2013-07-02 21:25:00,72.0,60.4,29.66,SE,135,7.0,13.0,67,0.00,,,0.10,Weather View 32 v70,2013-07-03 01:25:00,
2013-07-02 21:30:00,72.0,59.1,29.66,SE,135,5.0,13.0,64,0.00,,,0.10,Weather View 32 v70,2013-07-03 01:30:00,
2013-07-02 21:40:00,72.0,58.7,29.66,SSW,202,3.0,13.0,63,0.00,,,0.10,Weather View 32 v70,2013-07-03 01:40:00,
2013-07-02 21:50:00,72.0,59.6,29.66,SE,135,4.0,13.0,65,0.00,,,0.10,Weather View 32 v70,2013-07-03 01:50:00,
2013-07-02 21:55:00,72.0,59.6,29.66,ESE,112,5.0,13.0,65,0.00,,,0.10,Weather View 32 v70,2013-07-03 01:55:00,
2013-07-02 22:00:00,72.0,59.6,29.67,SE,135,1.0,13.0,65,0.00,,,0.10,Weather View 32 v70,2013-07-03 02:00:00,
2013-07-02 22:10:00,72.0,57.8,29.67,NE,45,4.0,13.0,61,0.00,,,0.10,Weather View 32 v70,2013-07-03 02:10:00,
2013-07-02 22:20:00,72.0,56.8,29.67,SE,135,2.0,13.0,59,0.00,,,0.10,Weather View 32 v70,2013-07-03 02:20:00,
2013-07-02 22:35:00,72.0,54.9,29.67,South,180,5.0,10.0,55,0.00,,,0.10,Weather View 32 v70,2013-07-03 02:35:00,
2013-07-02 22:45:00,72.0,54.9,29.67,SE,135,3.0,10.0,55,0.00,,,0.10,Weather View 32 v70,2013-07-03 02:45:00,
2013-07-02 22:50:00,72.0,53.4,29.67,NE,45,5.0,10.0,52,0.00,,,0.10,Weather View 32 v70,2013-07-03 02:50:00,
2013-07-02 23:01:00,72.0,53.9,29.67,ESE,112,9.0,10.0,53,0.00,,,0.10,Weather View 32 v70,2013-07-03 03:01:00,
2013-07-02 23:10:00,72.0,53.9,29.67,South,180,4.0,10.0,53,0.00,,,0.10,Weather View 32 v70,2013-07-03 03:10:00,
2013-07-02 23:20:00,72.0,55.4,29.67,SSE,157,2.0,11.0,56,0.00,,,0.10,Weather View 32 v70,2013-07-03 03:20:00,
2013-07-02 23:25:00,72.0,57.8,29.67,ESE,112,7.0,12.0,61,0.00,,,0.10,Weather View 32 v70,2013-07-03 03:25:00,
2013-07-02 23:35:00,72.0,59.1,29.68,South,180,4.0,12.0,64,0.00,,,0.10,Weather View 32 v70,2013-07-03 03:35:00,
2013-07-02 23:45:00,72.0,57.3,29.68,SE,135,6.0,12.0,60,0.00,,,0.10,Weather View 32 v70,2013-07-03 03:45:00,
2013-07-02 23:50:00,72.0,57.8,29.68,South,180,6.0,12.0,61,0.00,,,0.10,Weather View 32 v70,2013-07-03 03:50:00,
2013-07-02 23:55:00,72.0,57.3,29.68,ESE,112,6.0,12.0,60,0.00,,,0.10,Weather View 32 v70,2013-07-03 03:55:00,